Time;durP1;ratioP1;P1;durP2;ratioP2;P2;SDS_P1;SDS_P2;PMS_P1;PMS_P2;Temp;Humidity;BMP_temperature;BMP_pressure;BME280_temperature;BME280_humidity;BME280_pressure;Samples;Min_cycle;Max_cycle;Signal;HPM_P1;HPM_P2
2022/03/04 00:02:54;;;;;;;29.88;10.15;;;;;;;-11.38;57.64;96467.66;6321678;28;20069;-63
2022/03/04 00:05:55;;;;;;;31.05;10.93;;;;;;;-11.28;57.36;96477.94;6322318;28;20044;-64
2022/03/04 00:08:59;;;;;;;29.48;10.05;;;;;;;-11.20;57.57;96466.22;6321761;28;20055;-62
2022/03/04 00:12:03;;;;;;;28.60;11.48;;;;;;;-11.18;57.34;96469.59;6321119;28;20388;-63
2022/03/04 00:15:05;;;;;;;25.70;10.15;;;;;;;-11.13;57.10;96470.50;6321994;28;20441;-64
2022/03/04 00:18:07;;;;;;;34.10;11.90;;;;;;;-11.13;56.98;96473.91;6321018;28;20047;-63
2022/03/04 00:21:13;;;;;;;23.20;10.13;;;;;;;-11.25;56.68;96458.50;6321108;28;20048;-64
2022/03/04 00:24:20;;;;;;;26.88;10.45;;;;;;;-11.17;56.97;96476.41;6320891;28;20040;-64
2022/03/04 00:27:24;;;;;;;29.55;12.43;;;;;;;-11.20;56.94;96481.44;6320693;28;20048;-64
2022/03/04 00:30:27;;;;;;;29.02;11.00;;;;;;;-11.17;57.04;96473.88;6320932;28;20052;-63
2022/03/04 00:33:32;;;;;;;25.13;10.68;;;;;;;-11.19;57.19;96457.75;6320872;28;20063;-64
2022/03/04 00:36:38;;;;;;;25.80;11.07;;;;;;;-11.18;56.55;96467.06;6318719;28;20406;-64
2022/03/04 00:39:39;;;;;;;26.67;10.65;;;;;;;-11.20;56.88;96466.22;6320050;28;20121;-64
2022/03/04 00:42:40;;;;;;;40.28;13.73;;;;;;;-11.30;56.85;96460.97;6320170;28;20048;-65
2022/03/04 00:45:42;;;;;;;31.42;10.45;;;;;;;-11.26;57.16;96461.03;6320443;28;20067;-64
2022/03/04 00:48:48;;;;;;;27.73;11.02;;;;;;;-11.20;56.74;96466.22;6318991;28;20052;-64
2022/03/04 00:51:49;;;;;;;28.25;12.52;;;;;;;-11.19;56.84;96455.19;6320650;28;20042;-65
2022/03/04 00:54:51;;;;;;;32.70;12.68;;;;;;;-11.12;56.70;96464.63;6320897;28;20419;-64
2022/03/04 00:57:58;;;;;;;30.13;12.30;;;;;;;-11.06;56.79;96462.16;6320487;28;20052;-64
2022/03/04 01:00:59;;;;;;;23.80;9.20;;;;;;;-10.99;56.57;96461.38;6320366;28;20040;-63
2022/03/04 01:04:03;;;;;;;23.00;9.45;;;;;;;-11.00;56.49;96459.69;6320516;28;20040;-64
2022/03/04 01:07:05;;;;;;;25.85;9.48;;;;;;;-11.00;56.70;96463.91;6318961;28;20040;-63
2022/03/04 01:10:08;;;;;;;31.33;11.10;;;;;;;-11.06;56.64;96454.53;6320263;28;20056;-64
2022/03/04 01:13:13;;;;;;;22.45;8.50;;;;;;;-11.04;56.58;96457.91;6319990;28;20055;-63
2022/03/04 01:16:17;;;;;;;26.17;10.68;;;;;;;-11.08;56.76;96444.34;6319785;28;20052;-63
2022/03/04 01:19:22;;;;;;;19.63;8.65;;;;;;;-11.07;56.94;96440.09;6319856;28;20058;-64
2022/03/04 01:22:28;;;;;;;24.60;10.32;;;;;;;-11.08;57.19;96435.88;6320262;28;20036;-64
2022/03/04 01:25:32;;;;;;;21.30;7.70;;;;;;;-11.04;56.98;96427.44;6320105;28;20506;-64
2022/03/04 01:28:33;;;;;;;14.32;7.30;;;;;;;-11.06;57.07;96421.50;6320202;28;20499;-64
2022/03/04 01:31:40;;;;;;;20.58;9.02;;;;;;;-11.08;57.35;96425.72;6320188;28;20040;-64
2022/03/04 01:34:42;;;;;;;22.10;8.80;;;;;;;-11.16;57.32;96418.00;6319298;28;20044;-64
2022/03/04 01:37:45;;;;;;;18.35;7.97;;;;;;;-11.14;57.35;96425.63;6319969;28;20040;-63
2022/03/04 01:40:49;;;;;;;22.00;9.10;;;;;;;-11.21;57.36;96419.59;6319570;28;20423;-64
2022/03/04 01:43:53;;;;;;;21.95;8.80;;;;;;;-11.33;57.42;96409.31;6318984;28;20039;-64
2022/03/04 01:46:58;;;;;;;23.52;9.80;;;;;;;-11.36;57.62;96415.19;6319916;28;20174;-64
2022/03/04 01:50:03;;;;;;;18.50;8.30;;;;;;;-11.27;57.49;96427.16;6319915;28;20044;-64
2022/03/04 01:53:04;;;;;;;26.47;9.67;;;;;;;-11.38;57.94;96421.97;6319274;28;20426;-64
2022/03/04 01:56:08;;;;;;;28.08;10.48;;;;;;;-11.44;57.85;96419.31;6319752;28;20040;-63
2022/03/04 01:59:09;;;;;;;24.13;10.45;;;;;;;-11.36;57.98;96425.34;6319424;28;20056;-64
2022/03/04 02:02:16;;;;;;;23.20;10.80;;;;;;;-11.47;58.20;96423.50;6319816;28;20122;-63
2022/03/04 02:05:18;;;;;;;24.70;9.95;;;;;;;-11.50;58.07;96421.78;6318996;28;20089;-63
2022/03/04 02:08:26;;;;;;;23.85;10.15;;;;;;;-11.43;58.39;96407.50;6319324;28;20428;-64
2022/03/04 02:11:30;;;;;;;20.42;8.75;;;;;;;-11.41;58.14;96411.75;6321275;28;20532;-63
2022/03/04 02:14:31;;;;;;;21.40;9.38;;;;;;;-11.37;58.37;96413.50;6323964;28;20048;-64
2022/03/04 02:17:33;;;;;;;26.75;12.05;;;;;;;-11.48;58.58;96394.75;6323854;28;20411;-64
2022/03/04 02:20:35;;;;;;;24.48;11.00;;;;;;;-11.40;58.75;96399.94;6323736;28;20040;-64
2022/03/04 02:23:42;;;;;;;23.40;9.52;;;;;;;-11.29;58.53;96395.84;6323644;28;20424;-64
2022/03/04 02:26:43;;;;;;;;;;;;;;;-10.99;57.74;96400.41;6322388;28;20529;-64
2022/03/04 02:29:47;;;;;;;19.90;10.38;;;;;;;-11.07;58.75;96384.22;6323291;28;19924;-63
2022/03/04 02:32:51;;;;;;;25.00;11.98;;;;;;;-11.28;59.16;96387.38;6322210;28;20126;-64
2022/03/04 02:35:53;;;;;;;32.13;12.98;;;;;;;-11.34;59.90;96388.16;6323218;28;20518;-63
2022/03/04 02:38:54;;;;;;;23.38;9.80;;;;;;;-11.31;60.25;96398.34;6323120;28;20051;-64
2022/03/04 02:41:58;;;;;;;20.55;8.95;;;;;;;-11.30;59.99;96394.09;6323059;28;20046;-64
2022/03/04 02:45:04;;;;;;;23.42;10.25;;;;;;;-11.41;60.55;96383.81;6323171;28;20047;-63
2022/03/04 02:48:12;;;;;;;19.95;6.78;;;;;;;-11.34;60.46;96384.75;6323273;28;20036;-64
2022/03/04 02:51:13;;;;;;;29.67;13.02;;;;;;;-11.26;60.44;96374.69;6322696;28;20059;-65
2022/03/04 02:54:15;;;;;;;21.58;8.95;;;;;;;-11.30;60.52;96364.47;6322678;28;20056;-64
2022/03/04 02:57:19;;;;;;;18.77;7.75;;;;;;;-11.24;60.66;96367.94;6322856;28;20496;-64
2022/03/04 03:00:20;;;;;;;21.08;10.95;;;;;;;-11.21;60.56;96367.97;6322291;28;20717;-65
2022/03/04 03:03:24;;;;;;;17.73;8.38;;;;;;;-11.15;60.64;96368.03;6322734;28;20052;-65
2022/03/04 03:06:28;;;;;;;26.65;10.38;;;;;;;-10.98;60.46;96361.47;6321885;28;20044;-64
2022/03/04 03:09:32;;;;;;;16.80;8.13;;;;;;;-10.74;60.32;96342.22;6322284;28;20052;-65
2022/03/04 03:12:40;;;;;;;21.33;8.18;;;;;;;-10.66;60.06;96355.84;6322861;28;20036;-65
2022/03/04 03:15:44;;;;;;;33.28;11.98;;;;;;;-10.64;60.18;96356.72;6322077;28;20044;-64
2022/03/04 03:18:45;;;;;;;20.30;9.45;;;;;;;-10.49;60.43;96369.56;6322242;28;20043;-63
2022/03/04 03:21:50;;;;;;;25.83;11.15;;;;;;;-10.20;59.99;96379.09;6322221;28;20040;-65
2022/03/04 03:24:54;;;;;;;26.05;9.55;;;;;;;-9.88;59.38;96383.56;6322275;28;20032;-64
2022/03/04 03:27:56;;;;;;;22.38;9.70;;;;;;;-9.58;58.80;96381.19;6321743;28;20513;-63
2022/03/04 03:30:57;;;;;;;23.10;9.90;;;;;;;-9.27;58.27;96391.53;6321855;28;20040;-64
2022/03/04 03:33:59;;;;;;;20.52;7.95;;;;;;;-9.01;57.74;96398.44;6320626;28;20475;-63
2022/03/04 03:37:05;;;;;;;16.17;7.57;;;;;;;-8.83;57.41;96395.94;6321565;28;20554;-64
2022/03/04 03:40:11;;;;;;;29.05;13.05;;;;;;;-8.93;57.14;96384.03;6321764;28;20056;-64
2022/03/04 03:43:16;;;;;;;22.80;10.60;;;;;;;-8.96;57.69;96386.56;6320398;28;20123;-63
2022/03/04 03:46:17;;;;;;;37.55;13.38;;;;;;;-9.02;57.79;96401.84;6321381;28;20055;-65
2022/03/04 03:49:21;;;;;;;27.30;10.82;;;;;;;-8.92;57.89;96391.66;6320832;28;20047;-63
2022/03/04 03:52:26;;;;;;;26.55;10.55;;;;;;;-8.80;57.64;96388.34;6320817;28;20541;-63
2022/03/04 03:55:27;;;;;;;16.63;6.97;;;;;;;-8.64;56.99;96401.94;6320922;28;20052;-63
2022/03/04 03:58:28;;;;;;;15.68;8.30;;;;;;;-8.82;57.30;96392.56;6321338;28;20050;-62
2022/03/04 04:01:32;;;;;;;17.15;7.70;;;;;;;-8.83;57.58;96395.94;6319826;28;20044;-63
2022/03/04 04:04:36;;;;;;;17.10;7.90;;;;;;;-8.70;57.54;96384.09;6320922;28;20044;-65
2022/03/04 04:07:38;;;;;;;18.08;8.95;;;;;;;-8.42;56.83;96379.88;6320600;28;20044;-65
2022/03/04 04:10:44;;;;;;;20.92;8.32;;;;;;;-8.03;56.39;96384.13;6321430;28;20418;-64
2022/03/04 04:13:48;;;;;;;17.73;7.70;;;;;;;-7.66;55.18;96389.22;6321138;28;20056;-64
2022/03/04 04:16:49;;;;;;;19.70;8.45;;;;;;;-7.43;55.22;96361.03;6320884;28;20055;-64
2022/03/04 04:19:54;;;;;;;18.10;8.18;;;;;;;-7.08;54.27;96368.56;6320946;28;20040;-64
2022/03/04 04:23:00;;;;;;;21.77;9.07;;;;;;;-6.78;54.23;96371.88;6320993;28;20044;-64
2022/03/04 04:26:06;;;;;;;19.05;8.75;;;;;;;-6.54;53.55;96365.75;6320798;28;20044;-63
2022/03/04 04:29:09;;;;;;;;;;;;;;;-6.24;52.61;96364.69;6320823;28;20058;-64
2022/03/04 04:32:10;;;;;;;24.08;8.90;;;;;;;-6.07;52.26;96371.41;6320443;28;20423;-64
2022/03/04 04:35:16;;;;;;;19.75;8.95;;;;;;;-5.90;52.69;96378.06;6319561;28;20060;-65
2022/03/04 04:38:18;;;;;;;18.23;8.40;;;;;;;-5.69;52.30;96378.72;6318898;28;20419;-64
2022/03/04 04:41:19;;;;;;;25.48;9.52;;;;;;;-5.68;51.49;96373.59;6320657;28;20055;-64
2022/03/04 04:44:23;;;;;;;19.73;8.50;;;;;;;-5.43;51.86;96376.78;6320994;28;20044;-64
2022/03/04 04:47:27;;;;;;;25.35;10.02;;;;;;;-5.27;51.06;96367.19;6320238;28;20055;-64
2022/03/04 04:50:31;;;;;;;22.05;10.35;;;;;;;-5.14;50.92;96362.78;6320313;28;20490;-64
2022/03/04 04:53:40;;;;;;;28.55;10.48;;;;;;;-4.89;50.45;96360.78;6320295;28;20052;-64
2022/03/04 04:56:44;;;;;;;16.40;8.35;;;;;;;-4.57;49.84;96359.50;6319802;28;20070;-63
2022/03/04 04:59:50;;;;;;;24.83;10.55;;;;;;;-4.32;49.34;96362.56;6319813;28;20052;-64
2022/03/04 05:02:53;;;;;;;25.38;10.77;;;;;;;-4.23;48.63;96359.84;6320301;28;20048;-64
2022/03/04 05:05:56;;;;;;;24.52;9.68;;;;;;;-4.35;48.71;96357.47;6320473;28;20042;-63
2022/03/04 05:08:59;;;;;;;22.63;9.73;;;;;;;-4.33;49.19;96374.56;6320104;28;20060;-63
2022/03/04 05:12:03;;;;;;;19.65;9.52;;;;;;;-4.28;49.27;96369.34;6320515;28;20048;-64
2022/03/04 05:15:06;;;;;;;21.30;9.10;;;;;;;-4.15;48.25;96354.59;6319406;28;20502;-63
2022/03/04 05:18:10;;;;;;;18.10;8.55;;;;;;;-4.03;48.17;96356.97;6319782;28;20052;-63
2022/03/04 05:21:14;;;;;;;18.08;8.48;;;;;;;-3.85;47.70;96335.25;6318200;28;20621;-65
2022/03/04 05:24:18;;;;;;;27.90;12.00;;;;;;;-3.58;47.29;96343.38;6319692;28;20059;-63
2022/03/04 05:27:19;;;;;;;24.52;9.73;;;;;;;-3.38;47.10;96346.44;6319662;28;20043;-64
2022/03/04 05:30:23;;;;;;;19.42;8.07;;;;;;;-3.07;46.45;96348.44;6319382;28;20051;-65
2022/03/04 05:33:27;;;;;;;18.95;8.20;;;;;;;-2.64;45.77;96352.69;6319756;28;20054;-64
2022/03/04 05:36:30;;;;;;;15.63;7.72;;;;;;;-2.18;45.14;96360.25;6319545;28;20131;-64
2022/03/04 05:39:32;;;;;;;23.63;8.40;;;;;;;-1.76;44.36;96356.69;6319939;28;20052;-64
2022/03/04 05:42:33;;;;;;;16.52;7.60;;;;;;;-1.32;43.59;96352.97;6318496;28;20044;-64
2022/03/04 05:45:39;;;;;;;16.05;8.27;;;;;;;-0.64;42.68;96346.78;6322006;28;20036;-65
2022/03/04 05:48:44;;;;;;;21.95;9.57;;;;;;;0.65;39.98;96343.56;6324320;28;20142;-64
2022/03/04 05:51:45;;;;;;;17.95;8.90;;;;;;;3.41;36.31;96347.41;6324298;28;20054;-64
2022/03/04 05:54:47;;;;;;;20.83;10.48;;;;;;;6.27;32.22;96339.91;6324414;28;20055;-64
2022/03/04 05:57:48;;;;;;;19.23;11.13;;;;;;;9.01;28.20;96349.34;6324390;28;20044;-64
2022/03/04 06:00:52;;;;;;;18.77;10.05;;;;;;;11.38;25.68;96347.25;6324280;28;20055;-64
2022/03/04 06:03:56;;;;;;;19.40;10.45;;;;;;;13.30;23.79;96353.91;6324172;28;20044;-63
2022/03/04 06:07:02;;;;;;;23.83;10.63;;;;;;;14.77;22.50;96367.59;6324418;28;20043;-64
2022/03/04 06:10:04;;;;;;;21.38;10.20;;;;;;;16.14;21.17;96358.47;6323015;28;20064;-64
2022/03/04 06:13:08;;;;;;;15.55;8.30;;;;;;;17.38;18.96;96357.94;6323737;28;20060;-64
2022/03/04 06:16:14;;;;;;;12.48;7.28;;;;;;;18.09;18.39;96351.63;6323107;28;20044;-65
2022/03/04 06:19:16;;;;;;;13.13;8.10;;;;;;;18.48;17.49;96351.09;6323421;28;20056;-64
2022/03/04 06:22:21;;;;;;;13.95;7.05;;;;;;;19.42;16.32;96345.47;6321764;28;20051;-64
2022/03/04 06:25:25;;;;;;;16.70;8.13;;;;;;;19.71;15.95;96342.28;6323731;28;20130;-64
2022/03/04 06:28:29;;;;;;;19.83;8.60;;;;;;;19.94;15.72;96344.25;6323124;28;20129;-64
2022/03/04 06:31:33;;;;;;;17.27;8.30;;;;;;;20.84;14.55;96335.88;6323014;28;20040;-64
2022/03/04 06:34:34;;;;;;;14.25;8.52;;;;;;;21.51;13.89;96324.50;6321863;28;20044;-64
2022/03/04 06:37:37;;;;;;;16.48;8.95;;;;;;;22.39;12.91;96337.19;6323217;28;20051;-64
2022/03/04 06:40:42;;;;;;;15.45;9.60;;;;;;;23.37;12.42;96343.03;6321142;28;20134;-63
2022/03/04 06:43:48;;;;;;;12.80;9.13;;;;;;;23.93;11.86;96323.47;6322596;28;20055;-64
2022/03/04 06:46:49;;;;;;;15.32;8.65;;;;;;;24.67;11.48;96322.00;6322661;28;20058;-64
2022/03/04 06:49:51;;;;;;;13.60;8.52;;;;;;;25.19;10.94;96320.50;6322713;28;20044;-64
2022/03/04 06:52:53;;;;;;;18.95;9.75;;;;;;;25.57;11.09;96326.16;6322172;28;20143;-64
2022/03/04 06:55:57;;;;;;;18.10;9.77;;;;;;;25.33;11.04;96314.09;6322359;28;20040;-64
2022/03/04 06:58:58;;;;;;;22.02;10.75;;;;;;;25.89;10.67;96316.41;6320521;28;20059;-64
2022/03/04 07:02:00;;;;;;;26.77;10.02;;;;;;;26.15;10.25;96312.84;6321920;28;20056;-63
2022/03/04 07:05:06;;;;;;;16.73;9.68;;;;;;;26.33;10.05;96304.09;6322021;28;20051;-64
2022/03/04 07:08:13;;;;;;;17.38;8.73;;;;;;;26.64;10.10;96299.84;6322434;28;20139;-63
2022/03/04 07:11:14;;;;;;;18.20;9.48;;;;;;;27.25;9.61;96302.00;6322360;28;20047;-63
2022/03/04 07:14:16;;;;;;;19.30;10.00;;;;;;;27.83;9.20;96309.06;6322184;28;20431;-65
2022/03/04 07:17:19;;;;;;;19.00;10.27;;;;;;;27.94;8.72;96326.44;6321874;28;20055;-63
2022/03/04 07:20:25;;;;;;;19.90;10.75;;;;;;;28.08;8.81;96330.69;6321916;28;20052;-64
2022/03/04 07:23:31;;;;;;;18.15;10.32;;;;;;;28.54;8.85;96326.69;6322458;28;20548;-65
2022/03/04 07:26:35;;;;;;;17.75;10.07;;;;;;;29.05;8.35;96321.91;6322460;28;20056;-64
2022/03/04 07:29:36;;;;;;;25.92;10.50;;;;;;;29.54;8.11;96326.16;6321512;28;21169;-65
2022/03/04 07:32:40;;;;;;;22.17;10.68;;;;;;;30.12;7.80;96326.47;6321483;28;20507;-63
2022/03/04 07:35:45;;;;;;;14.98;9.45;;;;;;;30.79;7.47;96326.88;6321960;28;20036;-65
2022/03/04 07:38:49;;;;;;;20.45;9.70;;;;;;;31.27;7.77;96327.53;6322194;28;20043;-64
2022/03/04 07:41:51;;;;;;;22.17;10.32;;;;;;;31.28;7.54;96324.59;6321979;28;20048;-63
2022/03/04 07:44:55;;;;;;;18.48;10.73;;;;;;;30.99;7.37;96337.34;6320616;28;20411;-64
2022/03/04 07:47:59;;;;;;;19.20;9.48;;;;;;;30.51;7.32;96340.38;6321647;28;20433;-63
2022/03/04 07:51:01;;;;;;;19.63;11.20;;;;;;;30.62;7.34;96340.34;6321264;28;20514;-63
2022/03/04 07:54:04;;;;;;;18.10;10.63;;;;;;;30.62;7.75;96339.53;6321116;28;20056;-64
2022/03/04 07:57:08;;;;;;;16.98;10.30;;;;;;;29.82;7.67;96338.25;6321092;28;20040;-64
2022/03/04 08:00:15;;;;;;;16.40;9.18;;;;;;;28.24;8.02;96339.25;6321634;28;20044;-64
2022/03/04 08:03:19;;;;;;;15.32;8.95;;;;;;;27.79;8.35;96317.81;6320928;28;20465;-64
2022/03/04 08:06:25;;;;;;;13.70;8.95;;;;;;;28.17;8.26;96312.28;6320994;28;20048;-63
2022/03/04 08:09:27;;;;;;;17.55;9.70;;;;;;;29.15;7.98;96307.78;6319596;28;20130;-65
2022/03/04 08:12:29;;;;;;;15.10;8.77;;;;;;;30.15;7.70;96309.72;6321283;28;20048;-65
2022/03/04 08:15:32;;;;;;;18.23;10.57;;;;;;;30.28;7.44;96323.06;6320876;28;20098;-64
2022/03/04 08:18:34;;;;;;;21.33;12.05;;;;;;;30.00;7.48;96318.31;6320719;28;20047;-64
2022/03/04 08:21:39;;;;;;;19.92;11.60;;;;;;;30.26;7.61;96327.06;6320811;28;20527;-63
2022/03/04 08:24:40;;;;;;;25.63;11.98;;;;;;;30.86;7.43;96321.34;6319631;28;20040;-64
2022/03/04 08:27:44;;;;;;;23.42;12.02;;;;;;;31.32;6.93;96325.72;6319322;28;20060;-64
2022/03/04 08:30:45;;;;;;;21.85;12.52;;;;;;;31.18;7.28;96324.38;6320021;28;20478;-65
2022/03/04 08:33:52;;;;;;;21.00;12.68;;;;;;;31.06;6.84;96329.06;6320385;28;20101;-64
2022/03/04 08:36:58;;;;;;;17.88;10.80;;;;;;;31.64;7.16;96327.94;6319056;28;20514;-64
2022/03/04 08:40:08;;;;;;;20.13;12.43;;;;;;;31.44;6.64;96333.84;6320575;28;20040;-64
2022/03/04 08:43:12;;;;;;;19.60;12.25;;;;;;;30.60;7.32;96334.38;6320701;28;20077;-64
2022/03/04 08:46:14;;;;;;;21.52;12.10;;;;;;;30.28;7.22;96346.66;6320283;28;20040;-64
2022/03/04 08:49:17;;;;;;;18.75;12.63;;;;;;;30.61;7.18;96337.91;6319285;28;20047;-64
2022/03/04 08:52:20;;;;;;;20.42;13.05;;;;;;;30.97;7.18;96344.91;6320362;28;20044;-65
2022/03/04 08:55:24;;;;;;;23.08;13.27;;;;;;;31.32;6.55;96342.03;6320494;28;20056;-64
2022/03/04 08:58:25;;;;;;;23.67;13.13;;;;;;;31.14;6.96;96355.00;6319450;28;20499;-63
2022/03/04 09:01:29;;;;;;;21.38;13.25;;;;;;;30.50;6.85;96341.47;6319149;28;20491;-64
2022/03/04 09:04:33;;;;;;;21.75;13.88;;;;;;;29.74;7.39;96333.19;6320055;28;20086;-64
2022/03/04 09:07:36;;;;;;;25.33;15.77;;;;;;;29.20;7.94;96326.91;6320490;28;20040;-64
2022/03/04 09:10:37;;;;;;;22.60;15.43;;;;;;;29.13;7.66;96320.72;6319559;28;20464;-64
2022/03/04 09:13:39;;;;;;;29.67;16.65;;;;;;;28.74;7.97;96314.78;6319349;28;20044;-63
2022/03/04 09:16:40;;;;;;;27.75;17.25;;;;;;;29.03;8.01;96315.88;6319571;28;20052;-64
2022/03/04 09:19:44;;;;;;;26.15;15.80;;;;;;;29.20;7.89;96313.34;6321030;28;20517;-64
2022/03/04 09:22:49;;;;;;;24.02;15.35;;;;;;;28.80;8.06;96303.03;6325153;28;20051;-64
2022/03/04 09:25:52;;;;;;;25.30;16.30;;;;;;;28.90;8.35;96303.28;6325067;28;20046;-63
2022/03/04 09:28:53;;;;;;;;;;;;;;;30.13;7.86;96307.25;6324688;28;20044;-63
2022/03/04 09:31:57;;;;;;;35.67;23.20;;;;;;;29.23;8.22;96302.03;6324776;28;19920;-64
2022/03/04 09:35:04;;;;;;;25.92;16.52;;;;;;;29.03;8.22;96295.03;6325109;28;20051;-64
2022/03/04 09:38:08;;;;;;;27.23;16.73;;;;;;;28.88;8.31;96294.59;6324994;28;20043;-63
2022/03/04 09:41:12;;;;;;;29.73;18.08;;;;;;;28.75;8.36;96302.88;6323850;28;20040;-66
2022/03/04 09:44:15;;;;;;;31.73;18.75;;;;;;;28.58;8.40;96310.81;6324662;28;20044;-64
2022/03/04 09:47:23;;;;;;;27.95;16.95;;;;;;;28.41;8.57;96318.66;6324370;28;20494;-64
2022/03/04 09:50:27;;;;;;;28.42;17.58;;;;;;;27.71;8.92;96327.00;6322845;28;20043;-64
2022/03/04 09:53:31;;;;;;;31.10;19.00;;;;;;;26.25;9.45;96327.78;6324879;28;20118;-64
2022/03/04 09:56:35;;;;;;;29.30;16.50;;;;;;;25.10;10.35;96320.66;6324327;28;20090;-64
2022/03/04 09:59:41;;;;;;;30.77;17.08;;;;;;;24.86;10.57;96334.72;6324568;28;20044;-64
2022/03/04 10:02:44;;;;;;;30.33;16.80;;;;;;;24.29;10.65;96330.47;6323555;28;20048;-65
2022/03/04 10:05:53;;;;;;;41.22;19.73;;;;;;;23.09;11.34;96321.50;6323765;28;20519;-65
2022/03/04 10:08:56;;;;;;;31.33;18.42;;;;;;;22.81;11.38;96319.50;6323842;28;20052;-63
2022/03/04 10:12:07;;;;;;;29.85;17.30;;;;;;;23.10;11.42;96336.59;6320634;28;20055;-64
2022/03/04 10:15:12;;;;;;;27.42;18.08;;;;;;;23.26;11.20;96348.91;6322847;28;20049;-65
2022/03/04 10:18:25;;;;;;;23.42;14.38;;;;;;;22.38;11.55;96359.63;6321374;28;20051;-64
2022/03/04 10:21:51;;;;;;;17.80;10.82;;;;;;;20.98;12.62;96350.34;6323465;28;20072;-64
2022/03/04 10:24:59;;;;;;;19.23;11.80;;;;;;;18.62;13.81;96343.31;6322899;28;20510;-63
2022/03/04 10:28:10;;;;;;;18.60;11.60;;;;;;;16.88;14.75;96337.25;6322454;28;20518;-65
2022/03/04 10:31:16;;;;;;;16.90;10.02;;;;;;;16.16;15.54;96331.78;6322508;28;20507;-64
2022/03/04 10:34:20;;;;;;;18.05;10.00;;;;;;;17.28;14.55;96315.50;6322267;28;20082;-66
2022/03/04 10:37:40;;;;;;;18.42;9.95;;;;;;;18.59;13.84;96310.84;6322652;28;20048;-64
2022/03/04 10:40:45;;;;;;;21.85;10.90;;;;;;;19.13;13.52;96292.59;6322643;28;20051;-64
2022/03/04 10:43:51;;;;;;;20.85;10.57;;;;;;;19.46;12.92;96289.91;6322955;28;20052;-65
2022/03/04 10:46:56;;;;;;;22.60;11.70;;;;;;;19.39;13.61;96280.91;6322285;28;20395;-64
2022/03/04 10:49:59;;;;;;;22.10;12.70;;;;;;;19.24;13.47;96294.09;6322601;28;20055;-63
2022/03/04 10:53:04;;;;;;;21.40;12.07;;;;;;;19.06;13.72;96287.09;6321915;28;20459;-65
2022/03/04 10:56:07;;;;;;;25.65;13.35;;;;;;;18.70;13.61;96291.88;6323223;28;20048;-65
2022/03/04 10:59:09;;;;;;;21.85;11.77;;;;;;;18.31;14.12;96284.44;6323000;28;20117;-64
2022/03/04 11:02:11;;;;;;;24.00;11.93;;;;;;;17.79;14.61;96275.78;6322245;28;20428;-63
2022/03/04 11:05:13;;;;;;;26.77;13.13;;;;;;;17.13;15.00;96274.50;6322726;28;20039;-65
2022/03/04 11:08:20;;;;;;;30.77;15.05;;;;;;;16.46;15.62;96260.75;6322631;28;20040;-64
2022/03/04 11:11:21;;;;;;;29.40;14.85;;;;;;;15.92;16.29;96258.03;6322436;28;20137;-63
2022/03/04 11:14:23;;;;;;;29.90;14.13;;;;;;;15.40;16.75;96252.31;6322251;28;20049;-65
2022/03/04 11:17:29;;;;;;;29.00;14.88;;;;;;;14.91;17.63;96256.91;6321889;28;20060;-64
2022/03/04 11:20:33;;;;;;;29.92;16.33;;;;;;;14.66;17.63;96264.44;6322674;28;20036;-65
2022/03/04 11:23:37;;;;;;;30.27;16.38;;;;;;;14.29;17.85;96257.16;6321275;28;20052;-65
2022/03/04 11:26:39;;;;;;;;;;;;;;;14.45;17.53;96263.72;6322336;28;20036;-64
2022/03/04 11:29:40;;;;;;;35.78;16.55;;;;;;;13.78;18.25;96246.75;6321868;28;19916;-64
2022/03/04 11:32:45;;;;;;;37.95;16.17;;;;;;;13.33;18.78;96242.66;6321319;28;20043;-65
2022/03/04 11:36:05;;;;;;;32.50;15.32;;;;;;;12.94;19.35;96255.63;6321704;28;20130;-66
2022/03/04 11:39:15;;;;;;;38.22;16.05;;;;;;;12.04;20.39;96240.19;6321532;28;20494;-64
2022/03/04 11:42:17;;;;;;;36.15;14.63;;;;;;;11.16;21.25;96232.22;6321486;28;20043;-64
2022/03/04 11:45:35;;;;;;;30.27;14.27;;;;;;;10.65;21.95;96241.34;6321904;28;20126;-65
2022/03/04 11:48:36;;;;;;;29.92;13.85;;;;;;;10.09;22.56;96248.97;6321753;28;20036;-64
2022/03/04 11:52:00;;;;;;;;;;;;;;;9.62;22.81;96235.69;6321709;28;20051;-64
2022/03/04 11:55:14;;;;;;;27.40;13.70;;;;;;;8.63;24.43;96234.69;6320656;28;20414;-64
2022/03/04 11:58:15;;;;;;;;;;;;;;;8.48;24.46;96242.66;6320980;28;20055;-65
2022/03/04 12:01:25;;;;;;;18.50;10.30;;;;;;;8.07;25.62;96238.31;6321029;28;19920;-64
2022/03/04 12:04:27;;;;;;;32.28;16.65;;;;;;;8.02;25.23;96235.16;6319863;28;20201;-64
2022/03/04 12:07:34;;;;;;;14.95;9.02;;;;;;;8.05;25.38;96229.72;6321008;28;20183;-64
2022/03/04 12:10:46;;;;;;;14.52;9.10;;;;;;;8.15;24.86;96239.59;6320442;28;20130;-64
2022/03/04 12:13:47;;;;;;;16.90;9.43;;;;;;;8.06;25.06;96228.75;6320823;28;20065;-63
2022/03/04 12:16:55;;;;;;;18.35;10.10;;;;;;;7.94;25.18;96228.72;6320728;28;20044;-64
2022/03/04 12:19:59;;;;;;;17.45;9.73;;;;;;;7.84;25.22;96224.09;6320740;28;20035;-65
2022/03/04 12:23:09;;;;;;;14.57;9.43;;;;;;;7.70;25.92;96220.66;6320202;28;20052;-65
2022/03/04 12:26:20;;;;;;;18.33;9.75;;;;;;;7.47;25.74;96217.72;6320194;28;20557;-65
2022/03/04 12:29:24;;;;;;;18.08;10.55;;;;;;;7.31;25.86;96207.38;6320304;28;20051;-64
2022/03/04 12:32:27;;;;;;;17.23;9.98;;;;;;;6.97;26.21;96198.16;6320792;28;20044;-65
2022/03/04 12:35:34;;;;;;;19.15;10.10;;;;;;;6.63;27.06;96199.38;6320418;28;20089;-65
2022/03/04 12:38:44;;;;;;;16.83;9.35;;;;;;;6.43;27.62;96203.19;6320668;28;20044;-65
2022/03/04 12:41:53;;;;;;;18.90;10.23;;;;;;;6.36;27.76;96196.63;6320283;28;20052;-65
2022/03/04 12:44:56;;;;;;;18.63;9.82;;;;;;;6.16;28.31;96185.56;6320347;28;20039;-65
2022/03/04 12:47:59;;;;;;;18.73;10.05;;;;;;;6.11;28.51;96178.91;6319024;28;20097;-65
2022/03/04 12:51:00;;;;;;;21.35;10.63;;;;;;;5.77;28.74;96179.03;6319712;28;20052;-65
2022/03/04 12:54:08;;;;;;;17.42;9.18;;;;;;;5.10;29.97;96178.44;6319278;28;20133;-64
2022/03/04 12:57:10;;;;;;;21.17;11.88;;;;;;;4.14;31.24;96181.72;6319833;28;20046;-65
2022/03/04 13:00:11;;;;;;;18.02;11.15;;;;;;;2.94;33.02;96171.00;6319293;28;20051;-64
2022/03/04 13:03:22;;;;;;;16.13;9.95;;;;;;;1.99;34.55;96155.28;6319174;28;20079;-65
2022/03/04 13:06:30;;;;;;;19.65;9.82;;;;;;;1.48;35.57;96153.09;6319664;28;20040;-65
2022/03/04 13:09:34;;;;;;;26.35;15.95;;;;;;;1.20;35.93;96159.38;6319451;28;20047;-65
2022/03/04 13:12:35;;;;;;;24.02;12.52;;;;;;;0.87;36.63;96167.53;6319575;28;20059;-66
2022/03/04 13:16:06;;;;;;;20.67;12.68;;;;;;;0.57;37.12;96169.53;6319230;28;20048;-64
2022/03/04 13:19:19;;;;;;;22.15;12.77;;;;;;;0.01;38.40;96172.41;6303981;28;20135;-64
2022/03/04 13:22:25;;;;;;;26.15;12.15;;;;;;;-0.41;38.78;96177.25;6320214;28;20044;-64
2022/03/04 13:25:30;;;;;;;22.75;11.95;;;;;;;-0.82;39.62;96176.81;6319637;28;20048;-64
2022/03/04 13:29:00;;;;;;;23.25;11.23;;;;;;;-0.99;40.13;96196.28;6319667;28;20473;-64
2022/03/04 13:32:10;;;;;;;22.00;11.30;;;;;;;-1.27;41.72;96191.09;6317648;28;20048;-64
2022/03/04 13:35:16;;;;;;;26.13;12.13;;;;;;;-1.69;42.39;96195.75;6318249;28;20071;-64
2022/03/04 13:38:21;;;;;;;24.40;11.30;;;;;;;-2.09;43.13;96199.38;6318962;28;20495;-65
2022/03/04 13:41:25;;;;;;;23.52;11.52;;;;;;;-2.59;43.35;96202.31;6317736;28;20074;-64
2022/03/04 13:44:29;;;;;;;16.17;9.23;;;;;;;-2.94;43.99;96201.44;6319273;28;20044;-65
2022/03/04 13:47:35;;;;;;;25.40;10.45;;;;;;;-3.25;44.14;96195.25;6319776;28;20044;-65
2022/03/04 13:50:47;;;;;;;14.85;7.70;;;;;;;-3.40;44.78;96204.13;6317729;28;20134;-64
2022/03/04 13:53:56;;;;;;;17.23;8.73;;;;;;;-3.84;46.16;96193.03;6319561;28;20055;-64
2022/03/04 13:57:01;;;;;;;16.25;8.38;;;;;;;-4.05;45.99;96189.13;6319404;28;20130;-64
2022/03/04 14:00:11;;;;;;;20.30;9.00;;;;;;;-4.22;46.21;96192.00;6319911;28;20447;-63
2022/03/04 14:03:17;;;;;;;22.65;10.60;;;;;;;-4.22;46.72;96198.84;6319557;28;20046;-65
2022/03/04 14:06:24;;;;;;;20.13;9.73;;;;;;;-4.49;47.07;96192.50;6319556;28;20070;-66
2022/03/04 14:09:28;;;;;;;25.38;11.18;;;;;;;-4.59;46.67;96186.66;6322692;28;20052;-64
2022/03/04 14:12:32;;;;;;;22.45;10.40;;;;;;;-4.63;46.14;96185.03;6322500;28;20051;-65
2022/03/04 14:15:41;;;;;;;20.30;9.68;;;;;;;-4.65;46.57;96186.75;6322829;28;20044;-65